Time;durP1;ratioP1;P1;durP2;ratioP2;P2;SDS_P1;SDS_P2;PMS_P1;PMS_P2;Temp;Humidity;BMP_temperature;BMP_pressure;BME280_temperature;BME280_humidity;BME280_pressure;Samples;Min_cycle;Max_cycle;Signal;HPM_P1;HPM_P2
2023/03/18 00:00:16;;;;;;;77.60;35.80;;;;;;;2.19;49.59;98686.09;4971092;28;20026;-71
2023/03/18 00:02:42;;;;;;;71.25;33.90;;;;;;;2.17;49.22;98688.22;4981937;28;20031;-72
2023/03/18 00:05:09;;;;;;;70.03;32.60;;;;;;;2.16;49.12;98688.47;4972461;28;20497;-72
2023/03/18 00:07:35;;;;;;;70.18;31.85;;;;;;;2.15;49.63;98692.22;4973964;28;20031;-71
2023/03/18 00:10:01;;;;;;;68.35;32.22;;;;;;;2.12;49.13;98687.28;4972505;28;20042;-72
2023/03/18 00:12:26;;;;;;;66.25;32.90;;;;;;;2.11;49.02;98685.63;4972684;28;20066;-72
2023/03/18 00:14:52;;;;;;;66.85;31.77;;;;;;;2.11;49.48;98680.22;4973265;28;20109;-72
2023/03/18 00:17:17;;;;;;;72.03;32.78;;;;;;;2.08;49.40;98679.63;4974504;28;20022;-71
2023/03/18 00:19:43;;;;;;;66.57;31.90;;;;;;;2.07;49.90;98688.81;4973527;28;20038;-72
2023/03/18 00:22:09;;;;;;;61.97;30.98;;;;;;;2.06;49.86;98679.03;4972079;28;20109;-71
2023/03/18 00:24:35;;;;;;;69.18;32.47;;;;;;;2.05;49.62;98680.09;4972008;28;20027;-70
2023/03/18 00:27:01;;;;;;;72.72;32.95;;;;;;;2.02;49.93;98672.44;4972322;28;20142;-71
2023/03/18 00:29:26;;;;;;;76.07;34.70;;;;;;;2.00;49.36;98671.88;4973167;28;20058;-71
2023/03/18 00:31:52;;;;;;;73.07;34.75;;;;;;;2.01;49.79;98672.69;4971906;28;20549;-71
2023/03/18 00:34:17;;;;;;;75.40;33.00;;;;;;;2.00;49.63;98668.34;4971100;28;20082;-71
2023/03/18 00:36:44;;;;;;;68.75;31.40;;;;;;;1.97;50.40;98668.81;4972010;28;20114;-72
2023/03/18 00:39:12;;;;;;;65.68;31.20;;;;;;;1.95;49.80;98668.22;4970999;28;20031;-72
2023/03/18 00:41:38;;;;;;;70.72;31.60;;;;;;;1.91;50.16;98665.16;4970350;28;20077;-71
2023/03/18 00:44:04;;;;;;;68.40;29.38;;;;;;;1.90;50.08;98658.94;4971212;28;20038;-72
2023/03/18 00:46:34;;;;;;;61.33;29.58;;;;;;;1.88;50.59;98668.31;4971015;28;20027;-72
2023/03/18 00:49:01;;;;;;;;;;;;;;;1.89;50.60;98664.56;4971532;28;20030;-71
2023/03/18 00:51:30;;;;;;;55.35;28.40;;;;;;;1.87;50.05;98655.84;4970415;28;19973;-72
2023/03/18 00:53:58;;;;;;;55.78;26.38;;;;;;;1.83;50.48;98647.41;4970446;28;20023;-73
2023/03/18 00:56:25;;;;;;;54.15;26.75;;;;;;;1.79;50.03;98638.09;4967708;28;20105;-73
2023/03/18 00:58:52;;;;;;;56.28;27.17;;;;;;;1.77;49.83;98651.03;4972085;28;20031;-73
2023/03/18 01:01:19;;;;;;;61.90;28.65;;;;;;;1.74;50.45;98640.69;4970082;28;20464;-73
2023/03/18 01:03:46;;;;;;;61.35;29.80;;;;;;;1.71;50.08;98646.56;4973280;28;20033;-73
2023/03/18 01:06:14;;;;;;;58.40;27.20;;;;;;;1.67;50.32;98643.50;4968691;28;20085;-73
2023/03/18 01:08:41;;;;;;;52.38;24.98;;;;;;;1.63;50.34;98639.63;4970679;28;20446;-73
2023/03/18 01:11:07;;;;;;;51.08;25.65;;;;;;;1.61;50.58;98636.31;4970618;28;20061;-73
2023/03/18 01:13:33;;;;;;;51.15;25.00;;;;;;;1.57;51.09;98629.72;4970679;28;20018;-73
2023/03/18 01:15:59;;;;;;;49.50;24.20;;;;;;;1.58;50.54;98623.28;4970960;28;20034;-73
2023/03/18 01:18:25;;;;;;;51.33;24.75;;;;;;;1.57;50.51;98629.72;4970381;28;20515;-73
2023/03/18 01:20:50;;;;;;;49.38;24.23;;;;;;;1.55;50.71;98623.75;4970668;28;20030;-73
2023/03/18 01:23:16;;;;;;;50.58;25.13;;;;;;;1.51;50.63;98627.97;4969551;28;20031;-73
2023/03/18 01:25:43;;;;;;;52.42;25.70;;;;;;;1.49;50.87;98628.22;4970462;28;20050;-73
2023/03/18 01:28:09;;;;;;;59.55;27.15;;;;;;;1.48;51.10;98618.44;4970383;28;20114;-73
2023/03/18 01:30:37;;;;;;;63.15;29.55;;;;;;;1.45;50.94;98608.91;4969983;28;20029;-73
2023/03/18 01:33:04;;;;;;;62.42;29.08;;;;;;;1.43;51.19;98616.41;4969730;28;20535;-73
2023/03/18 01:35:33;;;;;;;63.38;27.92;;;;;;;1.41;51.06;98623.13;4970342;28;20069;-73
2023/03/18 01:37:58;;;;;;;61.00;29.60;;;;;;;1.39;51.23;98612.56;4970085;28;20058;-73
2023/03/18 01:40:27;;;;;;;60.33;28.33;;;;;;;1.37;51.26;98614.69;4970279;28;20061;-73
2023/03/18 01:42:56;;;;;;;64.18;30.00;;;;;;;1.38;51.36;98599.28;4969082;28;20877;-74
2023/03/18 01:45:27;;;;;;;52.53;26.50;;;;;;;1.36;51.67;98595.97;4977182;28;20030;-73
2023/03/18 01:47:54;;;;;;;59.78;27.70;;;;;;;1.32;51.34;98601.84;4970462;28;20509;-73
2023/03/18 01:50:25;;;;;;;62.85;29.17;;;;;;;1.29;51.41;98602.31;4970384;28;20550;-73
2023/03/18 01:52:56;;;;;;;60.78;29.33;;;;;;;1.27;51.51;98596.31;4969289;28;20506;-73
2023/03/18 01:55:26;;;;;;;60.10;28.85;;;;;;;1.28;51.16;98597.16;4967586;28;20550;-73
2023/03/18 01:57:53;;;;;;;63.72;29.52;;;;;;;1.24;51.62;98599.47;4967801;28;20114;-73
2023/03/18 02:00:20;;;;;;;59.40;28.75;;;;;;;1.20;51.53;98598.31;4970249;28;20535;-73
2023/03/18 02:02:47;;;;;;;99.75;38.45;;;;;;;1.15;51.27;98598.19;4969960;28;20154;-72
2023/03/18 02:05:17;;;;;;;119.28;41.83;;;;;;;1.11;51.29;98592.41;4970317;28;20042;-73
2023/03/18 02:07:44;;;;;;;103.82;39.70;;;;;;;1.10;51.43;98603.44;4970103;28;20027;-73
2023/03/18 02:10:23;;;;;;;83.47;33.72;;;;;;;1.06;51.30;98604.97;4976851;28;20122;-73
2023/03/18 02:13:02;;;;;;;80.20;33.58;;;;;;;1.02;52.08;98599.19;4969699;28;20518;-73
2023/03/18 02:15:29;;;;;;;66.15;30.52;;;;;;;0.99;52.25;98607.78;4968162;28;20035;-73
2023/03/18 02:18:08;;;;;;;66.63;29.25;;;;;;;0.93;52.05;98593.28;4969870;28;20042;-72
2023/03/18 02:20:48;;;;;;;59.58;27.50;;;;;;;0.88;52.10;98593.16;4970139;28;20030;-72
2023/03/18 02:23:14;;;;;;;59.10;28.52;;;;;;;0.87;51.66;98597.75;4969128;28;20434;-73
2023/03/18 02:25:54;;;;;;;60.13;28.38;;;;;;;0.84;52.21;98594.66;4970009;28;20467;-73
2023/03/18 02:28:26;;;;;;;54.15;27.15;;;;;;;0.83;52.39;98598.41;4981537;28;20047;-72
2023/03/18 02:30:56;;;;;;;50.38;25.90;;;;;;;0.80;52.30;98596.19;4973544;28;20026;-73
2023/03/18 02:33:25;;;;;;;53.22;25.98;;;;;;;0.80;51.95;98601.59;4973298;28;20055;-73
2023/03/18 02:35:55;;;;;;;52.55;24.83;;;;;;;0.79;52.25;98595.34;4973558;28;20054;-73
2023/03/18 02:38:20;;;;;;;50.15;25.02;;;;;;;0.76;52.48;98595.00;4973433;28;20035;-72
2023/03/18 02:40:45;;;;;;;53.17;25.65;;;;;;;0.75;52.50;98591.47;4973185;28;20291;-73
2023/03/18 02:43:16;;;;;;;49.40;23.50;;;;;;;0.72;52.59;98603.56;4984370;28;20085;-73
2023/03/18 02:46:10;;;;;;;47.72;23.25;;;;;;;0.68;52.20;98604.22;4973157;28;20031;-73
2023/03/18 02:48:40;;;;;;;48.22;23.00;;;;;;;0.69;52.75;98601.31;4958116;28;20042;-73
2023/03/18 02:51:06;;;;;;;49.20;24.07;;;;;;;0.67;52.51;98602.56;4970248;28;20045;-73
2023/03/18 02:53:33;;;;;;;49.63;24.38;;;;;;;0.63;52.65;98602.22;4972611;28;20270;-73
2023/03/18 02:55:58;;;;;;;52.30;24.30;;;;;;;0.61;52.74;98601.63;4973324;28;20761;-73
2023/03/18 02:58:24;;;;;;;46.63;23.73;;;;;;;0.57;52.79;98605.81;4972977;28;20105;-72
2023/03/18 03:00:49;;;;;;;50.78;25.17;;;;;;;0.54;52.96;98608.97;4972805;28;20019;-73
2023/03/18 03:03:15;;;;;;;44.55;23.02;;;;;;;0.53;52.77;98613.56;4972659;28;20368;-72
2023/03/18 03:05:40;;;;;;;46.00;23.17;;;;;;;0.52;52.41;98608.38;4972916;28;20035;-73
2023/03/18 03:08:06;;;;;;;48.17;23.80;;;;;;;0.51;53.13;98612.13;4973357;28;20035;-73
2023/03/18 03:10:31;;;;;;;49.20;24.73;;;;;;;0.50;52.71;98616.72;4972212;28;20078;-74
2023/03/18 03:12:57;;;;;;;48.15;22.95;;;;;;;0.51;52.95;98615.66;4972112;28;20078;-72
2023/03/18 03:15:23;;;;;;;44.20;23.35;;;;;;;0.54;53.12;98608.97;4972824;28;20110;-73
2023/03/18 03:17:48;;;;;;;47.35;23.30;;;;;;;0.56;53.22;98613.13;4972287;28;20085;-73
2023/03/18 03:20:14;;;;;;;52.28;24.80;;;;;;;0.56;52.89;98609.56;4972712;28;20687;-73
2023/03/18 03:22:41;;;;;;;54.03;26.30;;;;;;;0.56;53.38;98610.41;4971931;28;20034;-72
2023/03/18 03:25:08;;;;;;;51.67;27.23;;;;;;;0.54;52.94;98609.81;4972739;28;20026;-73
2023/03/18 03:27:34;;;;;;;54.58;27.38;;;;;;;0.54;53.22;98609.81;4972650;28;20047;-73
2023/03/18 03:29:59;;;;;;;51.30;27.08;;;;;;;0.54;53.44;98606.28;4972955;28;20058;-73
2023/03/18 03:32:25;;;;;;;49.53;25.88;;;;;;;0.53;53.19;98602.78;4970784;28;20038;-73
2023/03/18 03:34:51;;;;;;;48.55;24.88;;;;;;;0.50;53.19;98608.63;4972650;28;20058;-73
2023/03/18 03:37:16;;;;;;;43.55;24.55;;;;;;;0.51;53.20;98609.44;4972363;28;20041;-73
2023/03/18 03:39:43;;;;;;;49.42;25.55;;;;;;;0.51;53.72;98609.44;4971964;28;20739;-73
2023/03/18 03:42:09;;;;;;;47.70;25.95;;;;;;;0.49;53.48;98606.13;4972176;28;20034;-73
2023/03/18 03:44:35;;;;;;;48.53;26.95;;;;;;;0.49;53.41;98611.53;4971188;28;20029;-73
2023/03/18 03:47:00;;;;;;;52.78;26.45;;;;;;;0.48;53.36;98613.41;4972604;28;20538;-73
2023/03/18 03:49:26;;;;;;;50.00;26.58;;;;;;;0.48;53.55;98626.91;4972276;28;20031;-73
2023/03/18 03:51:51;;;;;;;49.10;25.33;;;;;;;0.48;53.46;98620.66;4972036;28;20049;-73
2023/03/18 03:54:18;;;;;;;45.83;24.17;;;;;;;0.46;53.60;98618.22;4972188;28;20134;-73
2023/03/18 03:56:43;;;;;;;51.58;25.25;;;;;;;0.43;54.27;98619.47;4972083;28;20022;-73
2023/03/18 03:59:09;;;;;;;46.67;23.73;;;;;;;0.42;53.61;98622.41;4972190;28;20403;-73
2023/03/18 04:01:34;;;;;;;46.65;23.02;;;;;;;0.41;54.29;98621.56;4971962;28;20030;-73
2023/03/18 04:04:01;;;;;;;41.40;22.35;;;;;;;0.39;53.72;98626.41;4969115;28;20062;-73
2023/03/18 04:06:27;;;;;;;42.22;22.08;;;;;;;0.38;54.15;98621.22;4970503;28;20109;-74
2023/03/18 04:08:53;;;;;;;46.60;23.63;;;;;;;0.38;54.16;98624.75;4970567;28;20102;-74
2023/03/18 04:11:19;;;;;;;45.80;22.45;;;;;;;0.38;54.07;98616.66;4972318;28;20114;-73
2023/03/18 04:13:44;;;;;;;40.45;21.65;;;;;;;0.37;53.99;98628.50;4969749;28;20031;-73
2023/03/18 04:16:10;;;;;;;44.13;22.27;;;;;;;0.34;53.94;98623.53;4970548;28;20730;-73
2023/03/18 04:18:35;;;;;;;40.72;21.33;;;;;;;0.32;53.99;98622.09;4971033;28;20081;-73
2023/03/18 04:21:01;;;;;;;45.35;22.20;;;;;;;0.30;54.35;98625.03;4971861;28;20522;-73
2023/03/18 04:23:26;;;;;;;44.97;22.77;;;;;;;0.28;54.32;98629.84;4977274;28;20023;-73
2023/03/18 04:25:52;;;;;;;45.50;22.35;;;;;;;0.26;54.32;98629.25;4971350;28;20046;-73
2023/03/18 04:28:17;;;;;;;41.22;23.17;;;;;;;0.26;54.67;98626.53;4970047;28;20030;-73
2023/03/18 04:30:43;;;;;;;46.13;23.77;;;;;;;0.24;54.62;98632.16;4971159;28;20471;-73
2023/03/18 04:33:08;;;;;;;49.78;25.13;;;;;;;0.22;54.80;98625.34;4971160;28;20035;-74
2023/03/18 04:35:34;;;;;;;54.58;27.85;;;;;;;0.22;54.46;98626.16;4971614;28;20023;-74
2023/03/18 04:38:00;;;;;;;49.45;26.17;;;;;;;0.21;54.61;98626.38;4971717;28;20475;-74
2023/03/18 04:40:26;;;;;;;57.60;27.08;;;;;;;0.18;54.82;98635.75;4971450;28;20109;-74
2023/03/18 04:42:52;;;;;;;49.25;25.15;;;;;;;0.17;54.22;98633.28;4971102;28;20074;-73
2023/03/18 04:45:17;;;;;;;53.47;24.80;;;;;;;0.16;54.74;98629.78;4971324;28;20026;-73
2023/03/18 04:47:44;;;;;;;52.10;24.88;;;;;;;0.15;54.72;98633.50;4971519;28;20049;-74
2023/03/18 04:50:11;;;;;;;48.75;24.13;;;;;;;0.13;54.98;98631.03;4971574;28;20383;-74
2023/03/18 04:52:38;;;;;;;46.15;23.75;;;;;;;0.12;55.04;98628.56;4971008;28;20058;-74
2023/03/18 04:55:04;;;;;;;45.65;23.70;;;;;;;0.12;54.51;98629.38;4971091;28;20117;-74
2023/03/18 04:57:30;;;;;;;48.78;23.25;;;;;;;0.11;54.75;98627.72;4970996;28;20130;-73
2023/03/18 04:59:56;;;;;;;43.85;22.58;;;;;;;0.11;55.24;98625.03;4970799;28;20034;-73
2023/03/18 05:02:21;;;;;;;47.38;24.35;;;;;;;0.12;54.89;98629.38;4970448;28;20098;-73
2023/03/18 05:04:46;;;;;;;44.83;23.30;;;;;;;0.14;55.12;98632.66;4970529;28;20030;-74
2023/03/18 05:07:14;;;;;;;44.00;23.08;;;;;;;0.17;55.21;98628.72;4971216;28;20050;-74
2023/03/18 05:09:40;;;;;;;46.72;24.17;;;;;;;0.18;55.05;98630.38;4970653;28;20018;-73
2023/03/18 05:12:10;;;;;;;47.70;23.88;;;;;;;0.18;55.05;98626.84;4970306;28;20447;-74
2023/03/18 05:14:35;;;;;;;45.65;23.55;;;;;;;0.18;55.56;98627.66;4970804;28;20050;-74
2023/03/18 05:17:02;;;;;;;55.53;27.17;;;;;;;0.19;55.40;98626.63;4971000;28;20368;-73
2023/03/18 05:19:28;;;;;;;57.88;28.30;;;;;;;0.18;55.27;98632.22;4970796;28;20046;-73
2023/03/18 05:21:54;;;;;;;60.25;29.42;;;;;;;0.19;55.19;98628.47;4970577;28;20038;-73
2023/03/18 05:24:20;;;;;;;65.35;31.40;;;;;;;0.19;55.16;98629.31;4970790;28;20050;-73
2023/03/18 05:26:45;;;;;;;59.47;30.98;;;;;;;0.21;55.53;98635.28;4970672;28;20479;-73
2023/03/18 05:29:10;;;;;;;62.38;32.72;;;;;;;0.22;55.31;98636.94;4970847;28;20065;-73
2023/03/18 05:31:36;;;;;;;67.45;33.45;;;;;;;0.22;55.47;98636.13;4985571;28;20074;-73
2023/03/18 05:34:01;;;;;;;72.95;35.03;;;;;;;0.24;55.19;98632.16;4970411;28;20058;-73
2023/03/18 05:36:28;;;;;;;67.35;32.90;;;;;;;0.27;55.18;98642.50;4978870;28;20015;-74
2023/03/18 05:38:54;;;;;;;66.20;29.08;;;;;;;0.31;55.49;98639.34;4970296;28;20049;-74
2023/03/18 05:41:19;;;;;;;64.85;29.83;;;;;;;0.33;55.53;98635.38;4970208;28;20030;-73
2023/03/18 05:43:45;;;;;;;67.75;31.58;;;;;;;0.38;55.57;98643.63;4970668;28;20034;-74
2023/03/18 05:46:10;;;;;;;64.70;29.73;;;;;;;0.42;55.70;98638.59;4970429;28;20039;-74
2023/03/18 05:48:36;;;;;;;66.22;30.65;;;;;;;0.43;55.62;98638.34;4971569;28;20027;-74
2023/03/18 05:51:03;;;;;;;59.90;28.48;;;;;;;0.47;55.48;98646.84;4970346;28;20640;-74
2023/03/18 05:53:28;;;;;;;52.38;26.33;;;;;;;0.54;55.80;98650.28;4967934;28;20019;-74
2023/03/18 05:55:55;;;;;;;55.22;26.60;;;;;;;0.61;55.76;98652.91;4969620;28;20027;-73
2023/03/18 05:58:20;;;;;;;53.05;27.10;;;;;;;0.68;56.08;98652.81;4969768;28;20533;-74
2023/03/18 06:00:45;;;;;;;50.10;24.55;;;;;;;0.77;55.97;98656.06;4969820;28;20023;-73
2023/03/18 06:03:11;;;;;;;53.20;25.35;;;;;;;0.85;55.96;98650.31;4972218;28;20027;-73
2023/03/18 06:05:36;;;;;;;54.60;26.98;;;;;;;0.93;56.34;98662.69;4977288;28;20483;-73
2023/03/18 06:08:02;;;;;;;66.78;29.40;;;;;;;1.01;55.84;98670.50;4976519;28;20029;-74
2023/03/18 06:10:27;;;;;;;72.30;34.15;;;;;;;1.07;56.11;98660.63;4976202;28;20305;-73
2023/03/18 06:12:54;;;;;;;64.25;32.28;;;;;;;1.15;55.76;98663.81;4974441;28;20045;-72
2023/03/18 06:15:20;;;;;;;71.15;31.70;;;;;;;1.23;55.89;98659.97;4973444;28;20027;-73
2023/03/18 06:17:46;;;;;;;62.38;32.13;;;;;;;1.32;55.76;98660.47;4975960;28;20159;-73
2023/03/18 06:20:14;;;;;;;71.47;34.80;;;;;;;1.34;56.45;98652.97;4976501;28;20468;-74
2023/03/18 06:22:40;;;;;;;69.65;32.05;;;;;;;1.41;56.24;98656.41;4975978;28;20531;-73
2023/03/18 06:25:07;;;;;;;77.95;33.03;;;;;;;1.47;56.35;98655.44;4975047;28;20046;-73
2023/03/18 06:27:34;;;;;;;67.35;30.58;;;;;;;1.54;55.92;98658.06;4977064;28;20042;-73
2023/03/18 06:30:02;;;;;;;52.67;27.13;;;;;;;1.64;56.18;98665.59;4976394;28;20027;-73
2023/03/18 06:32:28;;;;;;;52.75;26.45;;;;;;;1.74;55.99;98670.44;4976193;28;20033;-73
2023/03/18 06:34:54;;;;;;;44.28;23.45;;;;;;;1.83;55.57;98662.81;4977424;28;20034;-72
2023/03/18 06:37:20;;;;;;;42.08;20.23;;;;;;;1.94;56.24;98664.69;4977082;28;20027;-73
2023/03/18 06:39:45;;;;;;;37.85;20.52;;;;;;;2.06;55.58;98676.34;4977139;28;20035;-73
2023/03/18 06:42:11;;;;;;;40.97;20.20;;;;;;;2.16;55.58;98673.03;4976895;28;20142;-73
2023/03/18 06:44:38;;;;;;;43.65;21.48;;;;;;;2.25;56.29;98673.50;4976597;28;20837;-73
2023/03/18 06:47:04;;;;;;;50.00;23.80;;;;;;;2.34;55.61;98672.09;4991666;28;20034;-73
2023/03/18 06:49:29;;;;;;;49.15;23.80;;;;;;;2.46;55.78;98682.09;4979599;28;20035;-73
2023/03/18 06:51:55;;;;;;;50.10;22.98;;;;;;;2.55;55.76;98677.94;4976742;28;20027;-73
2023/03/18 06:54:20;;;;;;;48.65;23.55;;;;;;;2.65;55.02;98675.44;4976268;28;20081;-72
2023/03/18 06:56:46;;;;;;;43.33;22.20;;;;;;;2.78;54.98;98687.06;4977200;28;20471;-73
2023/03/18 06:59:11;;;;;;;44.92;21.58;;;;;;;2.91;55.40;98689.53;4976361;28;20126;-73
2023/03/18 07:01:37;;;;;;;45.63;21.88;;;;;;;3.03;55.54;98691.38;4975637;28;20041;-73
2023/03/18 07:04:05;;;;;;;43.70;21.35;;;;;;;3.17;55.13;98690.00;4959301;28;20026;-73
2023/03/18 07:06:31;;;;;;;40.15;20.90;;;;;;;3.30;55.03;98697.03;4976576;28;20078;-73
2023/03/18 07:08:57;;;;;;;37.75;19.10;;;;;;;3.43;55.27;98691.31;4976962;28;20038;-75
2023/03/18 07:11:24;;;;;;;33.15;16.90;;;;;;;3.57;55.05;98699.16;4976506;28;20046;-72
2023/03/18 07:13:51;;;;;;;35.83;17.10;;;;;;;3.70;54.19;98703.44;4976490;28;20035;-73
2023/03/18 07:16:17;;;;;;;37.13;16.90;;;;;;;3.83;54.90;98689.56;4972206;28;20746;-73
2023/03/18 07:18:43;;;;;;;30.95;15.45;;;;;;;3.98;54.26;98699.00;4973878;28;20042;-73
2023/03/18 07:21:08;;;;;;;31.05;15.75;;;;;;;4.10;54.47;98693.47;4972932;28;20038;-72
2023/03/18 07:23:34;;;;;;;32.63;16.17;;;;;;;4.22;53.71;98694.22;4973415;28;20023;-72
2023/03/18 07:26:00;;;;;;;29.75;15.93;;;;;;;4.34;52.86;98698.72;4973058;28;20071;-72
2023/03/18 07:28:26;;;;;;;28.75;13.77;;;;;;;4.49;53.17;98689.97;4972745;28;20138;-72
2023/03/18 07:30:51;;;;;;;28.23;13.98;;;;;;;4.63;53.35;98691.25;4972994;28;20031;-72
2023/03/18 07:33:17;;;;;;;35.55;14.93;;;;;;;4.77;52.33;98702.56;4972966;28;20019;-72
2023/03/18 07:35:42;;;;;;;28.33;13.63;;;;;;;4.87;52.64;98691.00;4973363;28;20038;-72
2023/03/18 07:38:08;;;;;;;26.45;13.77;;;;;;;4.99;51.70;98702.59;4973277;28;20249;-72
2023/03/18 07:40:34;;;;;;;31.60;15.40;;;;;;;5.10;51.77;98691.81;4973101;28;20023;-72
2023/03/18 07:43:00;;;;;;;25.92;12.25;;;;;;;5.19;51.24;98693.00;4972721;28;20372;-72
2023/03/18 07:45:25;;;;;;;24.15;12.45;;;;;;;5.29;50.49;98693.13;4988368;28;20033;-72
2023/03/18 07:47:51;;;;;;;26.55;12.65;;;;;;;5.38;50.94;98692.66;4976645;28;20546;-72
2023/03/18 07:50:17;;;;;;;25.73;12.70;;;;;;;5.49;51.20;98688.97;4973465;28;20109;-72
2023/03/18 07:52:43;;;;;;;25.77;12.68;;;;;;;5.60;50.19;98692.63;4972926;28;20059;-73
2023/03/18 07:55:10;;;;;;;27.55;13.60;;;;;;;5.70;50.63;98691.88;4981994;28;20378;-73
2023/03/18 07:57:37;;;;;;;21.80;12.18;;;;;;;5.79;49.85;98691.13;4972870;28;20364;-73
2023/03/18 08:00:04;;;;;;;25.13;13.35;;;;;;;5.91;50.20;98690.97;4973260;28;20027;-74
2023/03/18 08:02:30;;;;;;;25.65;12.25;;;;;;;6.01;49.75;98690.28;4971485;28;20467;-74
2023/03/18 08:04:56;;;;;;;27.73;13.75;;;;;;;6.13;49.25;98689.25;4973511;28;20141;-73
2023/03/18 08:07:23;;;;;;;22.52;12.32;;;;;;;6.24;49.37;98696.41;4973415;28;20102;-71
2023/03/18 08:09:49;;;;;;;23.23;11.75;;;;;;;6.33;49.31;98686.69;4988305;28;20109;-72
2023/03/18 08:12:16;;;;;;;23.30;11.48;;;;;;;6.45;49.19;98686.47;4971982;28;20113;-71
2023/03/18 08:14:42;;;;;;;19.35;10.82;;;;;;;6.55;48.04;98694.72;4972456;28;20431;-71
2023/03/18 08:17:08;;;;;;;19.85;9.55;;;;;;;6.66;48.01;98697.50;4980682;28;20038;-71
2023/03/18 08:19:33;;;;;;;16.45;8.75;;;;;;;6.77;48.05;98699.16;4972834;28;20086;-71
2023/03/18 08:21:59;;;;;;;15.40;7.70;;;;;;;6.90;47.20;98697.91;4972297;28;20500;-71
2023/03/18 08:24:25;;;;;;;17.08;7.63;;;;;;;6.98;47.31;98694.63;4972629;28;20027;-71
2023/03/18 08:26:50;;;;;;;13.30;7.35;;;;;;;7.09;46.93;98692.78;4972293;28;20042;-71
2023/03/18 08:29:16;;;;;;;13.00;7.38;;;;;;;7.21;46.94;98692.53;4972660;28;20038;-71
2023/03/18 08:31:41;;;;;;;13.93;6.90;;;;;;;7.30;46.22;98692.84;4974604;28;20033;-71
2023/03/18 08:34:07;;;;;;;14.20;9.15;;;;;;;7.38;44.71;98695.03;4972711;28;20042;-72
2023/03/18 08:36:32;;;;;;;12.65;7.63;;;;;;;7.44;45.96;98695.88;4972544;28;20494;-71
2023/03/18 08:38:58;;;;;;;14.35;7.13;;;;;;;7.51;43.86;98690.16;4972388;28;20105;-71
2023/03/18 08:41:24;;;;;;;12.23;7.13;;;;;;;7.55;44.57;98685.78;4972015;28;20518;-71
2023/03/18 08:43:51;;;;;;;14.85;7.30;;;;;;;7.60;42.82;98694.81;4972337;28;20031;-71
2023/03/18 08:46:17;;;;;;;11.68;6.90;;;;;;;7.62;44.05;98696.44;4972101;28;20089;-72
2023/03/18 08:48:43;;;;;;;13.05;6.97;;;;;;;7.65;43.09;98702.19;4972334;28;20570;-72
2023/03/18 08:51:09;;;;;;;14.27;7.50;;;;;;;7.68;43.04;98698.09;4972369;28;20041;-70
2023/03/18 08:53:36;;;;;;;13.27;6.80;;;;;;;7.72;43.88;98696.47;4972161;28;20029;-70
2023/03/18 08:56:02;;;;;;;21.30;9.20;;;;;;;7.74;43.43;98692.38;4972329;28;20081;-70
2023/03/18 08:58:28;;;;;;;21.02;9.95;;;;;;;7.80;43.41;98689.63;4967274;28;20039;-69
2023/03/18 09:00:54;;;;;;;50.75;16.73;;;;;;;7.83;42.55;98686.38;4971692;28;20049;-69
2023/03/18 09:03:20;;;;;;;47.55;19.17;;;;;;;7.86;42.37;98685.81;4968602;28;20026;-70
2023/03/18 09:05:52;;;;;;;43.63;20.17;;;;;;;7.89;43.02;98686.09;4970028;28;20333;-72
2023/03/18 09:08:18;;;;;;;27.88;12.80;;;;;;;7.93;41.56;98685.53;4969590;28;20059;-70
2023/03/18 09:10:47;;;;;;;17.17;10.15;;;;;;;7.96;42.05;98691.25;4969947;28;20182;-70
2023/03/18 09:13:12;;;;;;;14.10;8.88;;;;;;;7.97;42.32;98681.19;4968628;28;20420;-71
2023/03/18 09:15:39;;;;;;;15.63;8.82;;;;;;;7.98;42.41;98674.63;4975061;28;20029;-70
2023/03/18 09:18:05;;;;;;;13.13;7.65;;;;;;;8.01;42.22;98677.63;4976686;28;20035;-70
2023/03/18 09:20:34;;;;;;;18.70;8.55;;;;;;;8.05;42.04;98672.44;4970998;28;20103;-71
2023/03/18 09:22:59;;;;;;;26.50;12.18;;;;;;;8.11;42.15;98670.50;4969162;28;20116;-72
2023/03/18 09:25:25;;;;;;;16.10;8.63;;;;;;;8.16;41.88;98667.78;4970344;28;20535;-72
2023/03/18 09:27:52;;;;;;;16.13;8.75;;;;;;;8.22;41.76;98668.56;4970970;28;20031;-72
2023/03/18 09:30:17;;;;;;;17.90;10.15;;;;;;;8.26;41.03;98670.50;4970896;28;20110;-71
2023/03/18 09:32:43;;;;;;;14.38;8.27;;;;;;;8.31;41.42;98667.75;4970098;28;20102;-72
2023/03/18 09:35:09;;;;;;;13.55;7.43;;;;;;;8.37;41.35;98659.53;4982938;28;20026;-73
2023/03/18 09:37:35;;;;;;;12.10;7.07;;;;;;;8.44;40.60;98652.69;4970322;28;20070;-73
2023/03/18 09:40:02;;;;;;;12.80;7.43;;;;;;;8.53;40.68;98661.16;4971173;28;20403;-73
2023/03/18 09:42:44;;;;;;;9.00;5.72;;;;;;;8.61;40.27;98666.06;4969788;28;20038;-71
2023/03/18 09:45:20;;;;;;;12.10;6.75;;;;;;;8.71;40.97;98659.75;4969165;28;20019;-71
2023/03/18 09:47:58;;;;;;;10.40;5.88;;;;;;;8.82;40.73;98657.78;4971477;28;20027;-71
2023/03/18 09:50:45;;;;;;;11.23;5.53;;;;;;;8.92;40.36;98657.75;4970694;28;20487;-73
2023/03/18 09:53:26;;;;;;;10.75;6.00;;;;;;;9.03;40.39;98657.72;4962784;28;20023;-72
2023/03/18 09:55:59;;;;;;;8.60;5.50;;;;;;;9.13;40.45;98651.34;4971917;28;20443;-72
2023/03/18 09:58:50;;;;;;;10.70;5.60;;;;;;;9.24;39.94;98653.75;4969624;28;20026;-73
2023/03/18 10:01:18;;;;;;;11.00;5.60;;;;;;;9.36;39.63;98652.59;4970957;28;20027;-72
2023/03/18 10:03:50;;;;;;;10.75;6.00;;;;;;;9.44;39.43;98649.25;4975706;28;20651;-72
2023/03/18 10:06:19;;;;;;;10.25;5.97;;;;;;;9.55;39.68;98646.47;4970105;28;20023;-73
2023/03/18 10:08:47;;;;;;;9.00;5.70;;;;;;;9.68;39.70;98656.75;4970508;28;20054;-74
2023/03/18 10:11:22;;;;;;;9.90;5.72;;;;;;;9.76;38.83;98647.13;4970036;28;20093;-74
2023/03/18 10:13:59;;;;;;;8.40;5.03;;;;;;;9.82;37.61;98646.78;4986026;28;20037;-74
2023/03/18 10:16:31;;;;;;;8.27;5.03;;;;;;;9.86;37.17;98647.03;4971744;28;20045;-74
2023/03/18 10:18:56;;;;;;;7.95;4.55;;;;;;;9.92;37.32;98654.09;4971730;28;20027;-74
2023/03/18 10:21:34;;;;;;;8.90;5.10;;;;;;;10.00;37.54;98644.44;4971482;28;20030;-74
2023/03/18 10:24:26;;;;;;;8.88;4.47;;;;;;;10.09;37.64;98647.38;4970693;28;20039;-75
2023/03/18 10:26:58;;;;;;;9.13;5.25;;;;;;;10.21;37.71;98647.00;4978710;28;20050;-74
2023/03/18 10:29:57;;;;;;;10.02;5.30;;;;;;;10.34;37.97;98648.22;4978151;28;20026;-75
2023/03/18 10:32:42;;;;;;;7.63;4.30;;;;;;;10.43;35.84;98641.84;4969173;28;20034;-74
2023/03/18 10:35:25;;;;;;;7.68;4.68;;;;;;;10.52;36.85;98641.22;4971627;28;20077;-72
2023/03/18 10:37:58;;;;;;;8.15;4.28;;;;;;;10.60;36.61;98637.03;4970202;28;20471;-75
2023/03/18 10:40:24;;;;;;;15.65;8.30;;;;;;;10.67;37.20;98641.03;4971275;28;20056;-74
2023/03/18 10:42:52;;;;;;;6.95;4.78;;;;;;;10.76;35.70;98637.66;4982036;28;20022;-71
2023/03/18 10:45:24;;;;;;;7.38;4.55;;;;;;;10.85;35.17;98641.38;4991817;28;20041;-72
2023/03/18 10:48:01;;;;;;;7.38;4.72;;;;;;;10.89;35.20;98634.19;4991279;28;20205;-73
2023/03/18 10:51:06;;;;;;;8.95;5.57;;;;;;;10.93;36.40;98624.25;4992976;28;20037;-72
2023/03/18 10:54:06;;;;;;;8.98;5.57;;;;;;;11.00;35.63;98640.38;4963286;28;20042;-73
2023/03/18 10:56:34;;;;;;;10.18;5.20;;;;;;;11.04;35.40;98635.91;4975019;28;20038;-73
2023/03/18 10:59:00;;;;;;;9.25;5.70;;;;;;;11.09;34.23;98632.28;4975392;28;20035;-73
2023/03/18 11:01:28;;;;;;;8.55;5.65;;;;;;;11.11;33.78;98641.84;4974165;28;20038;-75
2023/03/18 11:04:00;;;;;;;10.68;5.70;;;;;;;11.15;33.33;98637.41;4973771;28;20050;-74
2023/03/18 11:06:47;;;;;;;9.95;6.35;;;;;;;11.17;34.13;98628.91;4974539;28;20026;-74
2023/03/18 11:09:17;;;;;;;10.93;5.22;;;;;;;11.21;33.78;98634.59;4974303;28;20046;-73
2023/03/18 11:11:47;;;;;;;8.85;5.20;;;;;;;11.25;33.90;98630.94;4974224;28;20058;-74
2023/03/18 11:14:19;;;;;;;;;;;;;;;11.32;34.98;98625.13;4974751;28;20053;-73
2023/03/18 11:16:57;;;;;;;7.95;5.05;;;;;;;11.41;34.27;98623.31;4975108;28;19984;-73
2023/03/18 11:19:28;;;;;;;8.52;4.85;;;;;;;11.44;33.82;98611.72;4990198;28;20034;-72
2023/03/18 11:22:03;;;;;;;10.35;6.25;;;;;;;11.55;34.34;98614.31;4991697;28;20041;-73
2023/03/18 11:24:38;;;;;;;11.85;6.40;;;;;;;11.64;33.14;98620.78;4992360;28;20038;-74
2023/03/18 11:27:23;;;;;;;10.38;6.72;;;;;;;11.72;33.12;98616.53;4992432;28;20450;-73
2023/03/18 11:30:01;;;;;;;9.57;5.60;;;;;;;11.76;33.28;98607.41;4993743;28;20034;-73